Time;durP1;ratioP1;P1;durP2;ratioP2;P2;SDS_P1;SDS_P2;PMS_P1;PMS_P2;Temp;Humidity;BMP_temperature;BMP_pressure;BME280_temperature;BME280_humidity;BME280_pressure;Samples;Min_cycle;Max_cycle;Signal;HPM_P1;HPM_P2
2022/05/18 00:00:29;;;;;;;5.00;3.13;;;;;;;12.57;85.58;97830.94;5002033;28;20050;-61
2022/05/18 00:03:04;;;;;;;5.80;2.90;;;;;;;12.54;85.32;97828.78;4991229;28;20107;-61
2022/05/18 00:05:40;;;;;;;5.05;2.53;;;;;;;12.61;84.65;97839.44;5004382;28;20064;-61
2022/05/18 00:08:08;;;;;;;5.60;3.05;;;;;;;12.51;85.35;97837.41;4992673;28;20088;-61
2022/05/18 00:10:38;;;;;;;4.85;2.45;;;;;;;12.52;85.19;97839.03;4985272;28;20050;-61
2022/05/18 00:13:06;;;;;;;5.00;2.80;;;;;;;12.45;84.77;97839.25;5002420;28;20671;-61
2022/05/18 00:15:32;;;;;;;5.28;2.90;;;;;;;12.34;86.04;97835.56;5001195;28;20042;-61
2022/05/18 00:17:59;;;;;;;6.18;2.83;;;;;;;12.42;85.42;97842.44;4990959;28;20062;-61
2022/05/18 00:20:27;;;;;;;5.13;2.78;;;;;;;12.51;85.56;97842.84;4994426;28;20041;-61
2022/05/18 00:22:57;;;;;;;4.47;2.65;;;;;;;12.64;84.57;97843.53;5004933;28;20049;-61
2022/05/18 00:25:27;;;;;;;4.13;2.50;;;;;;;12.78;83.88;97846.69;4987396;28;20054;-61
2022/05/18 00:27:54;;;;;;;4.38;2.80;;;;;;;12.81;83.87;97847.00;4991295;28;20049;-61
2022/05/18 00:30:22;;;;;;;5.57;2.88;;;;;;;12.87;83.78;97845.97;5002650;28;20046;-61
2022/05/18 00:32:49;;;;;;;5.07;3.00;;;;;;;12.90;83.03;97849.25;5003944;28;20041;-63
2022/05/18 00:35:17;;;;;;;5.38;2.83;;;;;;;12.90;82.84;97832.94;4989645;28;20045;-61
2022/05/18 00:37:44;;;;;;;5.18;2.80;;;;;;;12.90;83.02;97849.25;4996735;28;20053;-61
2022/05/18 00:40:13;;;;;;;5.03;2.80;;;;;;;12.86;83.15;97846.22;5003763;28;20072;-61
2022/05/18 00:42:40;;;;;;;4.50;2.63;;;;;;;12.78;83.32;97842.06;4993660;28;20423;-61
2022/05/18 00:45:08;;;;;;;4.75;2.72;;;;;;;12.91;82.53;97843.56;5001376;28;20048;-61
2022/05/18 00:47:35;;;;;;;6.78;2.83;;;;;;;13.05;81.90;97843.16;4998208;28;20041;-61
2022/05/18 00:50:10;;;;;;;5.97;2.88;;;;;;;12.98;81.75;97835.22;5001214;28;20064;-61
2022/05/18 00:52:40;;;;;;;6.25;2.95;;;;;;;12.59;83.21;97845.13;5003573;28;20128;-61
2022/05/18 00:55:10;;;;;;;5.57;2.90;;;;;;;12.67;82.98;97845.72;5003604;28;20034;-61
2022/05/18 00:57:43;;;;;;;7.55;3.28;;;;;;;12.46;83.78;97837.34;4994668;28;20673;-61
2022/05/18 01:00:15;;;;;;;6.00;2.97;;;;;;;12.63;83.12;97833.75;5001174;28;20038;-61
2022/05/18 01:02:48;;;;;;;6.68;3.30;;;;;;;12.66;83.28;97838.66;4992629;28;20050;-61
2022/05/18 01:05:18;;;;;;;5.18;2.88;;;;;;;12.59;82.97;97842.41;4983521;28;20049;-61
2022/05/18 01:07:50;;;;;;;4.38;2.67;;;;;;;12.63;82.71;97841.91;5017505;28;20076;-61
2022/05/18 01:10:17;;;;;;;5.50;3.15;;;;;;;12.55;83.08;97843.97;5003509;28;20045;-61
2022/05/18 01:12:45;;;;;;;8.38;3.42;;;;;;;12.52;83.86;97843.66;5007439;28;20050;-61
2022/05/18 01:15:16;;;;;;;5.20;2.95;;;;;;;12.25;84.78;97842.53;4986220;28;20425;-61
2022/05/18 01:17:46;;;;;;;6.60;3.30;;;;;;;12.00;86.10;97843.78;4996695;28;20048;-61
2022/05/18 01:20:20;;;;;;;5.30;3.30;;;;;;;11.91;85.74;97843.38;5003821;28;20030;-61
2022/05/18 01:23:16;;;;;;;8.32;3.08;;;;;;;11.84;86.10;97857.09;5003661;28;20038;-61
2022/05/18 01:26:04;;;;;;;5.68;3.40;;;;;;;11.87;86.17;97852.28;4985790;28;20046;-60
2022/05/18 01:28:35;;;;;;;6.10;3.10;;;;;;;11.83;86.39;97852.75;5000612;28;20092;-61
2022/05/18 01:31:04;;;;;;;;;;;;;;;11.86;86.25;97858.78;4985172;28;20043;-61
2022/05/18 01:33:33;;;;;;;5.10;2.92;;;;;;;11.86;86.61;97858.78;5000482;28;19929;-61
2022/05/18 01:36:01;;;;;;;4.85;2.88;;;;;;;11.96;86.12;97867.06;5006460;28;20045;-61
2022/05/18 01:38:27;;;;;;;6.18;2.85;;;;;;;12.03;85.78;97867.72;5007573;28;20038;-61
2022/05/18 01:41:05;;;;;;;6.45;3.17;;;;;;;12.09;85.71;97866.72;5013998;28;20645;-61
2022/05/18 01:43:40;;;;;;;7.60;3.65;;;;;;;12.09;85.57;97864.00;5013365;28;20501;-60
2022/05/18 01:46:11;;;;;;;5.88;3.20;;;;;;;12.01;85.64;97864.41;5023604;28;20095;-61
2022/05/18 01:48:45;;;;;;;6.85;3.30;;;;;;;11.95;85.90;97860.78;5015075;28;20056;-60
2022/05/18 01:51:25;;;;;;;5.97;2.75;;;;;;;11.87;86.26;97861.22;4988259;28;20043;-61
2022/05/18 01:53:52;;;;;;;6.63;3.03;;;;;;;11.69;87.17;97862.31;5006148;28;20042;-60
2022/05/18 01:56:19;;;;;;;5.22;3.00;;;;;;;11.69;86.80;97854.97;5007959;28;20837;-61
2022/05/18 01:58:46;;;;;;;7.05;3.13;;;;;;;11.67;86.77;97864.44;4995777;28;20092;-61
2022/05/18 02:01:12;;;;;;;8.65;3.55;;;;;;;11.58;87.23;97853.19;4986985;28;20410;-60
2022/05/18 02:03:39;;;;;;;7.97;3.53;;;;;;;11.50;87.24;97865.25;4997759;28;20054;-60
2022/05/18 02:06:06;;;;;;;7.03;3.75;;;;;;;11.50;87.67;97850.91;4998003;28;20045;-61
2022/05/18 02:08:32;;;;;;;5.70;3.20;;;;;;;11.58;87.34;97864.03;5000868;28;20041;-61
2022/05/18 02:10:59;;;;;;;9.32;4.00;;;;;;;11.63;87.17;97858.69;4991102;28;20038;-61
2022/05/18 02:13:26;;;;;;;6.43;3.10;;;;;;;11.70;86.32;97851.22;5000893;28;20104;-61
2022/05/18 02:15:52;;;;;;;9.18;3.40;;;;;;;11.75;86.23;97853.19;5024227;28;20532;-61
2022/05/18 02:18:19;;;;;;;6.55;3.28;;;;;;;11.67;86.57;97856.31;5016182;28;20046;-61
2022/05/18 02:20:46;;;;;;;5.78;2.95;;;;;;;11.58;86.90;97858.63;4989734;28;20038;-61
2022/05/18 02:23:13;;;;;;;7.45;4.00;;;;;;;11.55;86.88;97859.09;5003333;28;20044;-61
2022/05/18 02:25:39;;;;;;;6.72;3.65;;;;;;;11.51;87.48;97857.94;4987910;28;20039;-61
2022/05/18 02:28:06;;;;;;;5.75;3.38;;;;;;;11.54;86.99;97863.69;4995246;28;20045;-61
2022/05/18 02:30:33;;;;;;;5.25;3.28;;;;;;;11.53;87.04;97867.47;5006060;28;20037;-61
2022/05/18 02:32:59;;;;;;;5.45;3.17;;;;;;;11.34;88.08;97864.19;5006453;28;20038;-61
2022/05/18 02:35:26;;;;;;;4.72;3.38;;;;;;;11.22;88.40;97868.84;4994218;28;20061;-61
2022/05/18 02:37:53;;;;;;;6.53;3.50;;;;;;;11.10;88.80;97877.03;4999693;28;20046;-61
2022/05/18 02:40:19;;;;;;;6.35;4.30;;;;;;;11.22;89.22;97885.09;5002150;28;20054;-60
2022/05/18 02:42:46;;;;;;;6.57;3.58;;;;;;;11.18;88.11;97882.88;4998868;28;20039;-61
2022/05/18 02:45:13;;;;;;;7.57;3.72;;;;;;;10.90;89.73;97884.53;5019698;28;20457;-61
2022/05/18 02:47:40;;;;;;;6.57;3.55;;;;;;;10.93;89.18;97875.94;5012853;28;20567;-61
2022/05/18 02:50:07;;;;;;;7.97;3.78;;;;;;;10.88;89.89;97878.53;5025121;28;20048;-60
2022/05/18 02:52:35;;;;;;;6.20;3.17;;;;;;;10.68;89.94;97878.16;5011969;28;20048;-60
2022/05/18 02:57:48;;;;;;;6.00;3.65;;;;;;;10.66;91.44;97887.31;5007411;28;20049;-61
2022/05/18 03:00:15;;;;;;;8.07;4.38;;;;;;;10.87;91.07;97879.59;4992968;28;20101;-60
2022/05/18 03:02:42;;;;;;;5.35;3.92;;;;;;;11.14;90.13;97870.91;4986095;28;20042;-60
2022/05/18 03:05:09;;;;;;;7.15;4.07;;;;;;;11.30;89.22;97876.56;5016512;28;20057;-61
2022/05/18 03:07:35;;;;;;;5.97;3.75;;;;;;;11.46;88.49;97880.38;5001193;28;20047;-61
2022/05/18 03:10:03;;;;;;;6.03;3.58;;;;;;;11.62;86.99;97877.94;5007124;28;20107;-61
2022/05/18 03:12:30;;;;;;;7.15;3.90;;;;;;;11.62;87.55;97872.50;5002106;28;20039;-61
2022/05/18 03:14:56;;;;;;;11.70;4.43;;;;;;;11.70;86.73;97869.38;5000726;28;20057;-61
2022/05/18 03:17:23;;;;;;;9.00;3.55;;;;;;;11.73;86.47;97873.50;5002363;28;20811;-61
2022/05/18 03:19:49;;;;;;;7.57;3.63;;;;;;;11.57;86.60;97875.94;4987006;28;20042;-60
2022/05/18 03:25:02;;;;;;;5.75;3.50;;;;;;;11.41;87.89;97891.97;4991399;28;20425;-61
2022/05/18 03:27:29;;;;;;;9.38;3.75;;;;;;;11.42;88.14;97890.06;4987927;28;20118;-61
2022/05/18 03:29:55;;;;;;;8.35;3.60;;;;;;;11.40;87.74;97900.34;4997645;28;20046;-61
2022/05/18 03:32:22;;;;;;;7.22;4.57;;;;;;;11.32;88.56;97899.66;5004765;28;20042;-61
2022/05/18 03:34:50;;;;;;;8.88;3.92;;;;;;;11.21;89.29;97899.72;5012582;28;20046;-63
2022/05/18 03:37:18;;;;;;;4.88;3.53;;;;;;;11.10;88.98;97896.84;5005843;28;20070;-61
2022/05/18 03:39:45;;;;;;;7.07;3.95;;;;;;;11.17;89.09;97900.22;5005332;28;20041;-61
2022/05/18 03:42:12;;;;;;;9.20;4.65;;;;;;;11.19;88.86;97899.97;5002215;28;20046;-61
2022/05/18 03:44:38;;;;;;;7.72;4.25;;;;;;;11.24;88.50;97897.34;5014844;28;20042;-61
2022/05/18 03:47:05;;;;;;;7.55;3.80;;;;;;;11.13;89.30;97901.75;5013055;28;20052;-61
2022/05/18 03:49:32;;;;;;;6.22;3.72;;;;;;;11.27;89.07;97902.28;5000216;28;20049;-61
2022/05/18 03:51:58;;;;;;;6.55;4.10;;;;;;;11.42;88.71;97904.44;5013080;28;20052;-61
2022/05/18 03:54:25;;;;;;;5.40;3.97;;;;;;;11.26;86.71;97910.66;5001603;28;20123;-61
2022/05/18 03:56:51;;;;;;;5.82;3.38;;;;;;;10.88;89.61;97905.63;5012917;28;20499;-61
2022/05/18 03:59:18;;;;;;;7.38;3.72;;;;;;;10.84;89.45;97912.59;5018519;28;20103;-63
2022/05/18 04:01:45;;;;;;;7.25;4.00;;;;;;;10.94;90.22;97914.66;5011481;28;20550;-61
2022/05/18 04:04:11;;;;;;;5.88;3.55;;;;;;;10.95;89.37;97915.50;5020174;28;20053;-61
2022/05/18 04:06:38;;;;;;;7.07;3.53;;;;;;;10.99;88.11;97913.97;5011753;28;20084;-61
2022/05/18 04:09:05;;;;;;;6.72;3.60;;;;;;;10.99;89.26;97916.66;5002307;28;20057;-61
2022/05/18 04:11:31;;;;;;;8.57;4.88;;;;;;;11.17;89.90;97912.97;5015848;28;20723;-61
2022/05/18 04:13:58;;;;;;;9.32;5.20;;;;;;;11.58;88.57;97921.00;4999952;28;20065;-61
2022/05/18 04:16:24;;;;;;;8.50;4.50;;;;;;;11.86;87.38;97913.03;5003831;28;20118;-61
2022/05/18 04:18:51;;;;;;;10.13;4.22;;;;;;;12.10;86.07;97922.66;5009248;28;20049;-61
2022/05/18 04:21:18;;;;;;;7.25;4.18;;;;;;;12.29;85.29;97921.56;5019035;28;20118;-61
2022/05/18 04:23:44;;;;;;;10.13;4.57;;;;;;;12.43;84.58;97924.75;5007914;28;20650;-61
2022/05/18 04:26:11;;;;;;;5.38;3.42;;;;;;;12.47;84.35;97925.91;5016936;28;20041;-61
2022/05/18 04:28:38;;;;;;;6.35;3.58;;;;;;;12.56;84.14;97923.56;5013292;28;20052;-61
2022/05/18 04:31:04;;;;;;;6.40;3.50;;;;;;;12.65;83.86;97923.94;5022057;28;20060;-61
2022/05/18 04:33:31;;;;;;;7.15;3.97;;;;;;;12.71;83.64;97926.47;5011822;28;20073;-61
2022/05/18 04:36:02;;;;;;;9.15;3.70;;;;;;;12.78;83.38;97923.56;5010265;28;20467;-62
2022/05/18 04:38:30;;;;;;;7.75;3.47;;;;;;;12.84;83.30;97928.03;5002940;28;20049;-62
2022/05/18 04:40:57;;;;;;;8.32;4.03;;;;;;;13.00;82.55;97929.00;5011133;28;20414;-62
2022/05/18 04:43:24;;;;;;;6.82;3.38;;;;;;;13.07;82.62;97931.53;5011596;28;20042;-62
2022/05/18 04:45:51;;;;;;;8.23;3.60;;;;;;;13.18;82.21;97929.75;5003296;28;20081;-62
2022/05/18 04:48:20;;;;;;;8.35;3.22;;;;;;;13.29;81.65;97935.28;5017215;28;20052;-62
2022/05/18 04:50:50;;;;;;;5.80;3.65;;;;;;;13.30;81.93;97936.94;5008043;28;20126;-62
2022/05/18 04:53:17;;;;;;;9.82;3.67;;;;;;;13.39;81.56;97940.84;5005411;28;20464;-62
2022/05/18 04:55:44;;;;;;;7.53;3.38;;;;;;;13.56;81.09;97935.31;5004659;28;20050;-61
2022/05/18 04:58:11;;;;;;;7.50;3.78;;;;;;;13.70;80.51;97940.34;4990035;28;20500;-62
2022/05/18 05:00:39;;;;;;;5.10;3.60;;;;;;;13.96;79.35;97937.84;5016577;28;20048;-62
2022/05/18 05:03:05;;;;;;;8.50;3.40;;;;;;;14.22;78.14;97943.50;5013727;28;20046;-62
2022/05/18 05:05:32;;;;;;;6.15;3.67;;;;;;;14.37;77.23;97938.13;5005919;28;20115;-63
2022/05/18 05:07:59;;;;;;;5.20;3.08;;;;;;;14.56;75.85;97946.69;5005666;28;20121;-62
2022/05/18 05:10:26;;;;;;;6.35;3.35;;;;;;;14.72;75.52;97944.03;5012725;28;20038;-62
2022/05/18 05:12:53;;;;;;;7.78;3.60;;;;;;;14.88;74.61;97955.03;5013041;28;20045;-62
2022/05/18 05:15:19;;;;;;;5.18;3.40;;;;;;;15.02;74.04;97955.38;5010650;28;20056;-62
2022/05/18 05:17:46;;;;;;;6.15;2.63;;;;;;;15.16;73.32;97956.53;5012430;28;20073;-62
2022/05/18 05:20:14;;;;;;;6.15;3.25;;;;;;;15.26;72.84;97954.91;5006209;28;20397;-62
2022/05/18 05:22:40;;;;;;;4.03;2.58;;;;;;;15.39;72.58;97959.03;4996544;28;20050;-62
2022/05/18 05:25:07;;;;;;;5.35;3.55;;;;;;;15.52;71.78;97958.50;5007851;28;20060;-62
2022/05/18 05:27:34;;;;;;;6.32;2.85;;;;;;;15.64;71.27;97965.63;5012527;28;20065;-62
2022/05/18 05:30:01;;;;;;;6.35;3.67;;;;;;;15.76;70.58;97962.63;4995303;28;20049;-62
2022/05/18 05:32:28;;;;;;;6.88;3.00;;;;;;;15.86;69.97;97960.75;5013530;28;20060;-62
2022/05/18 05:34:54;;;;;;;5.60;3.03;;;;;;;15.99;69.91;97964.88;5017547;28;20053;-62
2022/05/18 05:37:21;;;;;;;4.80;2.78;;;;;;;16.10;69.46;97964.88;5006405;28;20049;-62
2022/05/18 05:39:47;;;;;;;9.55;3.00;;;;;;;16.18;69.28;97968.97;5020486;28;20048;-62
2022/05/18 05:42:14;;;;;;;5.07;2.75;;;;;;;16.28;68.28;97970.91;5009605;28;20045;-62
2022/05/18 05:44:41;;;;;;;7.18;2.53;;;;;;;16.38;67.99;97974.44;4999893;28;20046;-62
2022/05/18 05:47:09;;;;;;;6.00;2.72;;;;;;;16.51;67.54;97975.75;4999545;28;20049;-62
2022/05/18 05:49:37;;;;;;;7.55;3.00;;;;;;;16.64;67.79;97974.38;4992972;28;20053;-62
2022/05/18 05:52:05;;;;;;;4.93;2.65;;;;;;;16.77;66.52;97972.97;4997880;28;20034;-62
2022/05/18 05:54:32;;;;;;;6.13;3.10;;;;;;;16.86;66.37;97975.97;5007410;28;20048;-62
2022/05/18 05:57:02;;;;;;;5.75;2.53;;;;;;;16.96;66.64;97977.03;5010649;28;20046;-62
2022/05/18 05:59:33;;;;;;;6.03;3.05;;;;;;;17.09;66.00;97975.63;5017013;28;20103;-62
2022/05/18 06:02:02;;;;;;;4.70;2.43;;;;;;;17.21;66.24;97973.38;5024294;28;20045;-62
2022/05/18 06:04:31;;;;;;;6.45;2.80;;;;;;;17.37;65.45;97973.31;5014254;28;20053;-62
2022/05/18 06:06:57;;;;;;;6.57;2.92;;;;;;;17.47;65.00;97975.97;5014479;28;20049;-61
2022/05/18 06:09:24;;;;;;;6.55;2.72;;;;;;;17.63;63.99;97973.16;5021767;28;20053;-62
2022/05/18 06:11:51;;;;;;;5.03;2.40;;;;;;;17.81;62.85;97975.22;5020084;28;20045;-62
2022/05/18 06:14:18;;;;;;;5.45;2.42;;;;;;;17.94;62.64;97973.75;4997368;28;20045;-62
2022/05/18 06:16:49;;;;;;;6.32;2.65;;;;;;;18.11;61.66;97978.06;5023068;28;20107;-62
2022/05/18 06:19:17;;;;;;;5.87;2.20;;;;;;;18.20;61.24;97976.31;5024458;28;20508;-62
2022/05/18 06:21:46;;;;;;;4.75;2.38;;;;;;;18.24;61.11;97976.56;5019724;28;20030;-61
2022/05/18 06:24:14;;;;;;;4.75;2.35;;;;;;;18.32;60.25;97984.16;5014284;28;20049;-62
2022/05/18 06:26:40;;;;;;;4.60;2.30;;;;;;;18.37;61.17;97983.31;5023574;28;20045;-62
2022/05/18 06:29:07;;;;;;;6.82;3.03;;;;;;;18.46;60.86;97991.72;5017122;28;20064;-62
2022/05/18 06:31:34;;;;;;;6.30;2.42;;;;;;;18.58;60.27;97981.19;5024360;28;20049;-62
2022/05/18 06:34:06;;;;;;;4.65;2.42;;;;;;;18.66;59.62;97984.41;5011885;28;20058;-62
2022/05/18 06:36:34;;;;;;;6.78;2.63;;;;;;;18.78;59.70;97990.31;4988075;28;20049;-62
2022/05/18 06:39:01;;;;;;;6.25;3.47;;;;;;;18.81;58.89;97988.91;4997705;28;20131;-62
2022/05/18 06:41:34;;;;;;;5.00;2.50;;;;;;;18.90;59.02;97983.59;5005853;28;20068;-61
2022/05/18 06:44:04;;;;;;;4.65;2.53;;;;;;;19.02;57.70;97978.50;5006150;28;20049;-62
2022/05/18 06:46:33;;;;;;;7.32;2.95;;;;;;;19.08;58.71;97980.13;4987083;28;20049;-62
2022/05/18 06:49:02;;;;;;;7.05;2.40;;;;;;;19.09;58.66;97987.22;4987080;28;20054;-62
2022/05/18 06:51:31;;;;;;;6.63;2.50;;;;;;;19.14;58.58;97986.38;4997432;28;20045;-62
2022/05/18 06:53:58;;;;;;;3.75;2.35;;;;;;;19.21;58.09;97984.06;5015439;28;20714;-62
2022/05/18 06:56:28;;;;;;;5.95;2.83;;;;;;;19.34;57.07;97979.78;5025353;28;20143;-62
2022/05/18 06:58:55;;;;;;;6.47;2.70;;;;;;;19.47;56.90;97991.16;5012674;28;20042;-62
2022/05/18 07:01:23;;;;;;;4.22;2.08;;;;;;;19.53;56.77;97986.41;5003262;28;20038;-62
2022/05/18 07:03:50;;;;;;;5.97;2.58;;;;;;;19.57;56.55;97990.22;5004579;28;20049;-62
2022/05/18 07:06:25;;;;;;;6.85;2.75;;;;;;;19.57;57.26;97982.75;4988994;28;20046;-62
2022/05/18 07:08:54;;;;;;;6.30;2.70;;;;;;;19.53;56.74;97984.47;4996194;28;20121;-62
2022/05/18 07:11:22;;;;;;;8.27;2.65;;;;;;;19.53;56.63;97989.97;5004621;28;20042;-61
2022/05/18 07:13:51;;;;;;;6.60;2.38;;;;;;;19.69;57.20;97987.84;5004865;28;20046;-62
2022/05/18 07:16:23;;;;;;;5.18;2.30;;;;;;;19.82;56.10;97989.00;5004967;28;20038;-64
2022/05/18 07:18:50;;;;;;;;;;;;;;;19.89;55.20;97992.19;5006659;28;20038;-62
2022/05/18 07:21:16;;;;;;;5.57;2.60;;;;;;;19.86;55.94;97997.47;5004753;28;19928;-62
2022/05/18 07:23:43;;;;;;;5.97;2.70;;;;;;;19.83;56.41;98000.81;5005434;28;20117;-62
2022/05/18 07:26:11;;;;;;;6.00;2.75;;;;;;;19.85;55.18;97998.56;5005544;28;20061;-62
2022/05/18 07:28:39;;;;;;;9.05;2.40;;;;;;;19.91;56.35;97991.91;5005029;28;20034;-62
2022/05/18 07:31:07;;;;;;;6.38;2.10;;;;;;;20.05;55.24;97997.47;5006047;28;20049;-62
2022/05/18 07:33:34;;;;;;;5.47;2.80;;;;;;;20.23;55.47;98001.31;5001811;28;20112;-62
2022/05/18 07:36:02;;;;;;;7.88;2.65;;;;;;;20.36;55.18;97994.25;5006223;28;20041;-62
2022/05/18 07:38:31;;;;;;;4.75;2.50;;;;;;;20.51;55.54;97995.06;5006825;28;20485;-62
2022/05/18 07:41:10;;;;;;;4.43;2.47;;;;;;;20.58;54.94;98001.00;4977314;28;1111830;-62
2022/05/18 07:43:37;;;;;;;6.40;2.50;;;;;;;20.61;54.92;98000.41;5016842;28;20491;-62
2022/05/18 07:46:05;;;;;;;6.18;2.50;;;;;;;20.66;54.29;97997.56;5006533;28;20096;-62
2022/05/18 07:48:32;;;;;;;4.60;2.42;;;;;;;20.80;54.45;97999.50;5006255;28;20045;-62
2022/05/18 07:50:59;;;;;;;6.65;2.83;;;;;;;20.87;54.52;97999.97;5014390;28;20072;-62
2022/05/18 07:53:26;;;;;;;5.85;2.50;;;;;;;20.90;54.09;97998.53;5012575;28;20045;-62
2022/05/18 07:55:53;;;;;;;6.57;2.55;;;;;;;20.93;53.79;97997.91;5002795;28;20705;-62
2022/05/18 07:58:21;;;;;;;4.50;2.30;;;;;;;21.02;53.87;97996.09;5015944;28;20104;-62
2022/05/18 08:00:48;;;;;;;6.53;2.60;;;;;;;21.09;52.77;97998.44;5023737;28;20057;-62
2022/05/18 08:03:16;;;;;;;5.18;2.80;;;;;;;21.16;53.78;97990.56;5017384;28;20049;-62
2022/05/18 08:05:45;;;;;;;6.60;2.60;;;;;;;21.23;51.75;97983.84;5011411;28;20038;-62
2022/05/18 08:08:18;;;;;;;5.65;2.40;;;;;;;21.38;52.51;97996.47;4990817;28;20037;-62
2022/05/18 08:16:17;;;;;;;4.47;2.50;;;;;;;21.78;48.55;97995.91;5004406;28;20050;-62
2022/05/18 08:18:45;;;;;;;3.78;2.20;;;;;;;21.88;48.76;97994.81;5006094;28;20049;-62
2022/05/18 08:21:12;;;;;;;5.80;2.95;;;;;;;22.12;48.05;97993.72;5004378;28;20045;-65
2022/05/18 08:23:39;;;;;;;5.93;2.47;;;;;;;22.20;47.73;98002.06;5006226;28;20103;-62
2022/05/18 08:26:06;;;;;;;5.43;2.50;;;;;;;22.22;46.93;98004.50;5005066;28;20042;-62
2022/05/18 08:28:33;;;;;;;3.60;2.00;;;;;;;22.25;46.97;98000.31;5004978;28;20045;-62
2022/05/18 08:30:59;;;;;;;4.30;2.38;;;;;;;22.29;46.35;98002.13;5005654;28;20045;-62
2022/05/18 08:33:28;;;;;;;4.00;2.30;;;;;;;22.29;46.54;98002.13;5004464;28;20148;-62
2022/05/18 08:35:55;;;;;;;3.80;2.30;;;;;;;22.31;46.55;98005.38;5015287;28;20073;-62
2022/05/18 08:38:22;;;;;;;5.78;2.60;;;;;;;22.38;47.53;98004.13;5014273;28;20686;-62
2022/05/18 08:40:58;;;;;;;4.03;2.60;;;;;;;22.42;46.72;98003.19;5009055;28;20048;-62
2022/05/18 08:43:34;;;;;;;4.45;2.42;;;;;;;22.54;45.58;98008.13;5016561;28;20089;-62
2022/05/18 08:46:38;;;;;;;4.90;2.38;;;;;;;22.67;46.60;98009.19;5010619;28;20045;-61
2022/05/18 08:49:11;;;;;;;4.80;2.42;;;;;;;22.82;46.51;98005.19;4996920;28;20048;-62
2022/05/18 08:51:56;;;;;;;5.03;2.28;;;;;;;22.71;44.68;98001.09;5014986;28;20038;-62
2022/05/18 08:54:57;;;;;;;5.00;2.22;;;;;;;22.88;44.79;98007.84;5006589;28;20060;-62
2022/05/18 08:57:29;;;;;;;5.38;2.35;;;;;;;22.98;43.41;98011.13;5012604;28;20056;-62
2022/05/18 08:59:58;;;;;;;3.80;1.73;;;;;;;23.08;43.46;98010.03;5022507;28;20125;-62
2022/05/18 09:02:32;;;;;;;4.68;2.20;;;;;;;23.18;42.45;98005.34;5016934;28;20057;-62
2022/05/18 09:05:05;;;;;;;3.58;2.10;;;;;;;23.30;43.03;98005.53;5022243;28;20046;-62
2022/05/18 09:07:56;;;;;;;7.25;2.35;;;;;;;23.31;41.95;98003.56;5018618;28;20050;-62
2022/05/18 09:10:29;;;;;;;6.15;2.17;;;;;;;23.40;43.24;98017.47;5007615;28;20067;-62
2022/05/18 09:12:55;;;;;;;3.65;1.88;;;;;;;22.95;38.99;98014.50;5002443;28;20046;-62
2022/05/18 09:15:40;;;;;;;4.18;2.15;;;;;;;23.11;42.15;98006.59;5011112;28;20515;-62
2022/05/18 09:18:16;;;;;;;3.05;1.92;;;;;;;23.12;41.77;98013.78;5010515;28;20050;-61
2022/05/18 09:20:47;;;;;;;3.90;2.03;;;;;;;23.28;43.58;98009.75;5022555;28;20046;-61
2022/05/18 09:23:33;;;;;;;;;;;;;;;23.24;40.95;98013.16;5012648;28;20052;-61
2022/05/18 09:26:24;;;;;;;4.07;2.40;;;;;;;23.41;43.16;98005.25;5021877;28;19921;-62
2022/05/18 09:28:52;;;;;;;4.00;2.00;;;;;;;23.48;41.91;97994.56;5012808;28;20049;-62
2022/05/18 09:31:49;;;;;;;4.00;2.00;;;;;;;23.50;42.69;97995.03;5022124;28;20046;-62
2022/05/18 09:34:31;;;;;;;5.00;2.13;;;;;;;23.70;40.30;98004.66;5001068;28;20054;-62
2022/05/18 09:37:28;;;;;;;2.95;1.70;;;;;;;23.68;39.90;97995.88;5010842;28;20060;-61
2022/05/18 09:40:18;;;;;;;5.22;1.92;;;;;;;23.77;40.81;97998.66;5007491;28;20045;-62
2022/05/18 09:42:53;;;;;;;2.72;1.45;;;;;;;23.92;39.24;97996.53;5018068;28;20530;-61
2022/05/18 09:45:24;;;;;;;3.00;1.55;;;;;;;23.96;38.78;97997.50;5010532;28;20038;-62
2022/05/18 09:47:59;;;;;;;3.45;1.73;;;;;;;23.76;37.97;97991.47;5010281;28;20053;-65
2022/05/18 09:50:26;;;;;;;4.15;1.70;;;;;;;23.90;39.11;97988.56;5016858;28;20479;-65
2022/05/18 09:52:55;;;;;;;10.45;2.10;;;;;;;24.12;40.01;97984.03;5013167;28;20042;-65
2022/05/18 09:55:25;;;;;;;8.10;2.28;;;;;;;24.24;39.62;97986.13;4998500;28;20042;-65
2022/05/18 09:57:55;;;;;;;8.18;2.20;;;;;;;24.34;38.49;97983.03;5024885;28;20045;-65
2022/05/18 10:00:30;;;;;;;4.28;1.70;;;;;;;24.52;38.14;97981.03;5019960;28;20484;-67
2022/05/18 10:08:48;;;;;;;6.82;2.08;;;;;;;24.50;37.78;97976.94;4999880;28;20172;-65
2022/05/18 10:11:21;;;;;;;4.18;1.83;;;;;;;24.46;38.64;97964.94;5020163;28;20100;-65
2022/05/18 10:13:56;;;;;;;5.18;2.05;;;;;;;24.59;38.44;97968.63;5017498;28;20053;-65
2022/05/18 10:17:09;;;;;;;3.78;1.80;;;;;;;24.70;37.75;97969.91;5022520;28;20045;-65
2022/05/18 10:19:43;;;;;;;4.40;1.60;;;;;;;24.71;36.63;97970.69;5024783;28;20509;-65
2022/05/18 10:22:12;;;;;;;6.30;1.70;;;;;;;24.61;36.48;97975.44;5010377;28;20034;-65
2022/05/18 10:24:54;;;;;;;4.38;2.10;;;;;;;24.71;37.44;97967.91;5007225;28;20052;-65
2022/05/18 10:27:29;;;;;;;3.92;1.90;;;;;;;24.71;36.32;97963.22;5004363;28;20050;-65
2022/05/18 10:30:15;;;;;;;5.15;1.50;;;;;;;24.77;37.47;97963.84;5012587;28;20049;-66
2022/05/18 10:33:03;;;;;;;3.95;1.80;;;;;;;24.93;36.01;97966.88;5001785;28;20116;-66
2022/05/18 10:36:10;;;;;;;4.15;1.60;;;;;;;25.01;35.44;97962.44;5021920;28;20045;-65
2022/05/18 10:38:38;;;;;;;3.88;1.60;;;;;;;25.13;36.03;97967.28;5011408;28;20103;-65
2022/05/18 10:41:15;;;;;;;2.83;1.30;;;;;;;25.31;34.72;97974.34;5018365;28;20045;-65
2022/05/18 10:43:53;;;;;;;3.80;1.40;;;;;;;24.89;33.18;97960.38;5000181;28;20529;-65
2022/05/18 10:46:46;;;;;;;3.25;1.70;;;;;;;24.66;35.90;97963.41;4992473;28;20124;-65
2022/05/18 10:49:32;;;;;;;4.63;1.60;;;;;;;24.72;36.00;97967.59;5007542;28;20046;-65
2022/05/18 10:52:15;;;;;;;4.55;1.55;;;;;;;24.75;35.43;97955.88;5005917;28;20034;-65
2022/05/18 10:55:14;;;;;;;3.25;1.48;;;;;;;25.17;33.91;97960.72;5007108;28;20050;-65
2022/05/18 10:57:54;;;;;;;3.83;1.27;;;;;;;25.23;33.87;97968.84;4982259;28;20092;-65
2022/05/18 11:00:26;;;;;;;3.65;1.33;;;;;;;25.44;35.75;97952.25;5007198;28;20608;-65
2022/05/18 11:03:14;;;;;;;4.13;1.70;;;;;;;25.20;34.33;97960.06;5006108;28;20038;-66
2022/05/18 11:05:46;;;;;;;4.57;1.67;;;;;;;25.19;35.12;97946.53;5005151;28;20038;-65
2022/05/18 11:08:19;;;;;;;3.78;1.40;;;;;;;25.09;34.39;97941.41;5004660;28;20038;-65
2022/05/18 11:11:14;;;;;;;4.07;1.52;;;;;;;25.15;34.59;97940.03;5006558;28;20042;-65
2022/05/18 11:14:03;;;;;;;4.22;1.58;;;;;;;25.15;34.06;97940.88;5013663;28;20045;-65
2022/05/18 11:16:32;;;;;;;6.30;2.33;;;;;;;25.24;33.95;97943.56;4979092;28;20072;-65
2022/05/18 11:19:08;;;;;;;3.35;1.30;;;;;;;25.06;33.63;97935.38;5016175;28;20057;-65
2022/05/18 11:21:53;;;;;;;2.22;1.20;;;;;;;25.46;32.94;97928.59;4992366;28;20536;-65
2022/05/18 11:24:39;;;;;;;3.53;1.42;;;;;;;25.60;33.18;97929.53;5014162;28;20049;-65
2022/05/18 11:27:34;;;;;;;4.28;1.30;;;;;;;25.45;33.98;97928.94;5009799;28;20124;-65
2022/05/18 11:30:07;;;;;;;3.45;1.63;;;;;;;25.53;33.71;97925.28;4986878;28;20654;-65
2022/05/18 11:32:48;;;;;;;3.35;1.50;;;;;;;25.43;33.48;97922.94;4991333;28;20800;-65
2022/05/18 11:35:33;;;;;;;3.92;1.60;;;;;;;25.87;33.41;97925.34;5006238;28;20497;-65
2022/05/18 11:38:19;;;;;;;5.13;1.70;;;;;;;25.83;33.70;97929.94;5006381;28;20041;-65
2022/05/18 11:41:05;;;;;;;3.53;1.55;;;;;;;25.79;33.08;97929.03;5006027;28;20046;-65
2022/05/18 11:43:43;;;;;;;3.47;1.50;;;;;;;25.82;33.10;97926.38;5006177;28;20038;-65
2022/05/18 11:46:18;;;;;;;3.92;1.48;;;;;;;25.98;32.19;97925.72;5005931;28;20041;-66
2022/05/18 11:48:52;;;;;;;3.00;1.52;;;;;;;26.28;32.40;97922.88;5005544;28;20045;-65
2022/05/18 11:51:31;;;;;;;4.68;1.65;;;;;;;26.45;32.77;97909.91;5004944;28;20061;-65
2022/05/18 11:54:19;;;;;;;4.60;1.45;;;;;;;26.70;32.16;97912.72;5005332;28;20181;-65
2022/05/18 11:56:56;;;;;;;2.88;1.55;;;;;;;26.94;32.45;97909.13;5006392;28;20042;-65
2022/05/18 11:59:57;;;;;;;3.92;1.60;;;;;;;26.94;32.04;97894.44;5005007;28;20060;-65
2022/05/18 12:02:42;;;;;;;4.28;1.42;;;;;;;26.64;32.40;97905.78;5006319;28;20543;-65
2022/05/18 12:05:38;;;;;;;3.15;1.60;;;;;;;26.70;33.10;97902.44;5005653;28;20057;-65
2022/05/18 12:08:30;;;;;;;5.65;2.00;;;;;;;27.14;32.27;97893.53;5006548;28;20048;-65
2022/05/18 12:11:16;;;;;;;5.40;1.70;;;;;;;27.19;32.19;97878.56;5005505;28;20054;-65